FLI456 EKVG-EKCH
Flight info
| Callsign | FLI456 |
|---|---|
| Flight time | N/A |
| Altitude | 37000 |
| Route | ODEVA DCT RIXUN DCT PEPIN DCT TESPI |
| Aircraft | A20N/M-SDE2E3FGHIRWXY/LB1 |
Departure
| Time | 2026-05-04 19:00 |
|---|---|
| Airport | Vágar Airport (EKVG) |
Arrival
| Time | N/A |
|---|---|
| Airport | Copenhagen Kastrup Airport (EKCH) |
| Time | Latitude | Longitude | Altitude | Speed | Heading |
|---|---|---|---|---|---|
| 2026-05-04 18:31 | 62.06708 | -7.28044 | 291 ft | 0 kts | 71° |
| 2026-05-04 18:54 | 62.06709 | -7.28042 | 291 ft | 0 kts | 72° |
| 2026-05-04 18:54 | 62.06704 | -7.28022 | 291 ft | 2 kts | 177° |
| 2026-05-04 18:54 | 62.06666 | -7.28065 | 291 ft | 8 kts | 206° |
| 2026-05-04 18:54 | 62.06604 | -7.28090 | 291 ft | 9 kts | 181° |
| 2026-05-04 18:55 | 62.06536 | -7.28111 | 292 ft | 9 kts | 198° |
| 2026-05-04 18:55 | 62.06451 | -7.28097 | 295 ft | 6 kts | 121° |
| 2026-05-04 18:55 | 62.06421 | -7.27980 | 296 ft | 11 kts | 116° |
| 2026-05-04 18:56 | 62.06377 | -7.27798 | 296 ft | 15 kts | 119° |
| 2026-05-04 18:56 | 62.06316 | -7.27546 | 293 ft | 24 kts | 118° |
| 2026-05-04 18:56 | 62.06230 | -7.27188 | 284 ft | 28 kts | 116° |
| 2026-05-04 18:56 | 62.06131 | -7.26790 | 272 ft | 31 kts | 118° |
| 2026-05-04 18:57 | 62.06026 | -7.26364 | 257 ft | 30 kts | 119° |
| 2026-05-04 18:57 | 62.05966 | -7.26128 | 251 ft | 16 kts | 117° |
| 2026-05-04 18:57 | 62.05944 | -7.25980 | 250 ft | 6 kts | 127° |
| 2026-05-04 18:57 | 62.05929 | -7.26006 | 250 ft | 3 kts | 319° |
| 2026-05-04 18:58 | 62.05955 | -7.26079 | 251 ft | 10 kts | 301° |
| 2026-05-04 18:58 | 62.05971 | -7.26149 | 252 ft | 0 kts | 297° |
| 2026-05-04 18:59 | 62.05983 | -7.26197 | 252 ft | 22 kts | 297° |
| 2026-05-04 19:00 | 62.06170 | -7.26938 | 276 ft | 87 kts | 298° |
| 2026-05-04 19:00 | 62.06538 | -7.28438 | 291 ft | 141 kts | 297° |
| 2026-05-04 19:00 | 62.07019 | -7.30441 | 625 ft | 158 kts | 300° |
| 2026-05-04 19:00 | 62.07474 | -7.32541 | 1357 ft | 158 kts | 292° |
| 2026-05-04 19:01 | 62.07743 | -7.34752 | 2101 ft | 157 kts | 287° |
| 2026-05-04 19:01 | 62.07984 | -7.37108 | 2598 ft | 172 kts | 286° |
| 2026-05-04 19:01 | 62.08242 | -7.39717 | 3064 ft | 189 kts | 285° |
| 2026-05-04 19:01 | 62.08527 | -7.42630 | 3458 ft | 212 kts | 286° |
| 2026-05-04 19:02 | 62.08811 | -7.45777 | 4123 ft | 224 kts | 280° |
| 2026-05-04 19:02 | 62.08824 | -7.49124 | 4979 ft | 231 kts | 268° |
| 2026-05-04 19:02 | 62.08490 | -7.52440 | 5849 ft | 237 kts | 256° |
| 2026-05-04 19:02 | 62.07785 | -7.55646 | 6708 ft | 244 kts | 243° |
| 2026-05-04 19:03 | 62.06718 | -7.58489 | 7592 ft | 251 kts | 230° |
| 2026-05-04 19:03 | 62.05354 | -7.60728 | 8484 ft | 257 kts | 217° |
| 2026-05-04 19:03 | 62.03695 | -7.62276 | 9338 ft | 266 kts | 203° |
| 2026-05-04 19:03 | 62.01868 | -7.62906 | 10148 ft | 275 kts | 188° |
| 2026-05-04 19:04 | 61.99945 | -7.62506 | 10904 ft | 286 kts | 172° |
| 2026-05-04 19:04 | 61.98070 | -7.60968 | 11630 ft | 296 kts | 154° |
| 2026-05-04 19:04 | 61.96418 | -7.58277 | 12347 ft | 304 kts | 135° |
| 2026-05-04 19:04 | 61.95173 | -7.54663 | 13009 ft | 311 kts | 119° |
| 2026-05-04 19:05 | 61.94185 | -7.50474 | 13401 ft | 326 kts | 114° |
| 2026-05-04 19:05 | 61.93248 | -7.45984 | 13728 ft | 343 kts | 113° |
| 2026-05-04 19:05 | 61.92272 | -7.41244 | 14047 ft | 360 kts | 114° |
| 2026-05-04 19:05 | 61.91231 | -7.36297 | 14422 ft | 374 kts | 114° |
| 2026-05-04 19:06 | 61.90139 | -7.31199 | 15008 ft | 381 kts | 114° |
| 2026-05-04 19:06 | 61.89034 | -7.26100 | 15556 ft | 388 kts | 114° |
| 2026-05-04 19:06 | 61.87899 | -7.20910 | 16061 ft | 395 kts | 115° |
| 2026-05-04 19:06 | 61.86724 | -7.15566 | 16559 ft | 403 kts | 115° |
| 2026-05-04 19:07 | 61.85538 | -7.10207 | 17079 ft | 409 kts | 115° |
| 2026-05-04 19:07 | 61.84314 | -7.04688 | 17439 ft | 420 kts | 116° |
| 2026-05-04 19:07 | 61.83062 | -6.99071 | 17669 ft | 434 kts | 116° |
| 2026-05-04 19:07 | 61.81755 | -6.93222 | 17914 ft | 447 kts | 116° |
| 2026-05-04 19:08 | 61.80417 | -6.87235 | 18265 ft | 456 kts | 116° |
| 2026-05-04 19:08 | 61.79054 | -6.81159 | 18708 ft | 461 kts | 116° |
| 2026-05-04 19:08 | 61.77667 | -6.74998 | 19154 ft | 467 kts | 116° |
| 2026-05-04 19:08 | 61.76267 | -6.68815 | 19601 ft | 472 kts | 116° |
| 2026-05-04 19:09 | 61.74847 | -6.62546 | 20032 ft | 477 kts | 116° |
| 2026-05-04 19:09 | 61.73432 | -6.56307 | 20462 ft | 482 kts | 116° |
| 2026-05-04 19:09 | 61.71975 | -6.49926 | 20910 ft | 487 kts | 116° |
| 2026-05-04 19:09 | 61.70503 | -6.43493 | 21337 ft | 492 kts | 116° |
| 2026-05-04 19:10 | 61.69017 | -6.36995 | 21764 ft | 496 kts | 116° |
| 2026-05-04 19:10 | 61.67513 | -6.30448 | 22171 ft | 500 kts | 117° |
| 2026-05-04 19:10 | 61.65991 | -6.23853 | 22559 ft | 505 kts | 117° |
| 2026-05-04 19:10 | 61.64453 | -6.17201 | 22917 ft | 509 kts | 117° |
| 2026-05-04 19:11 | 61.62917 | -6.10587 | 23313 ft | 512 kts | 117° |
| 2026-05-04 19:11 | 61.61343 | -6.03825 | 23663 ft | 517 kts | 117° |
| 2026-05-04 19:11 | 61.59758 | -5.97026 | 24030 ft | 520 kts | 117° |
| 2026-05-04 19:11 | 61.58175 | -5.90268 | 24381 ft | 524 kts | 117° |
| 2026-05-04 19:12 | 61.56576 | -5.83468 | 24747 ft | 526 kts | 117° |
| 2026-05-04 19:12 | 61.53313 | -5.69632 | 25518 ft | 531 kts | 117° |
| 2026-05-04 19:12 | 61.51693 | -5.62791 | 25913 ft | 533 kts | 117° |
| 2026-05-04 19:13 | 61.50033 | -5.55818 | 26318 ft | 534 kts | 117° |
| 2026-05-04 19:13 | 61.48396 | -5.48955 | 26842 ft | 532 kts | 117° |
| 2026-05-04 19:13 | 61.46739 | -5.42025 | 27366 ft | 530 kts | 118° |
| 2026-05-04 19:13 | 61.45117 | -5.35269 | 27826 ft | 529 kts | 117° |
| 2026-05-04 19:14 | 61.43456 | -5.28356 | 28285 ft | 528 kts | 119° |
| 2026-05-04 19:14 | 61.41835 | -5.21640 | 28736 ft | 527 kts | 119° |
| 2026-05-04 19:14 | 61.40186 | -5.14844 | 29175 ft | 525 kts | 119° |
| 2026-05-04 19:14 | 61.38535 | -5.08052 | 29652 ft | 524 kts | 119° |
| 2026-05-04 19:15 | 61.36895 | -5.01332 | 30062 ft | 523 kts | 119° |
| 2026-05-04 19:15 | 61.35256 | -4.94632 | 30506 ft | 521 kts | 119° |
| 2026-05-04 19:15 | 61.33624 | -4.87980 | 30937 ft | 520 kts | 119° |
| 2026-05-04 19:15 | 61.31990 | -4.81339 | 31322 ft | 518 kts | 119° |
| 2026-05-04 19:16 | 61.30354 | -4.74725 | 31725 ft | 516 kts | 119° |
| 2026-05-04 19:16 | 61.28721 | -4.68128 | 32069 ft | 515 kts | 119° |
| 2026-05-04 19:16 | 61.27074 | -4.61498 | 32488 ft | 512 kts | 119° |
| 2026-05-04 19:16 | 61.25467 | -4.55049 | 32727 ft | 510 kts | 118° |
| 2026-05-04 19:17 | 61.23829 | -4.48493 | 33015 ft | 509 kts | 118° |
| 2026-05-04 19:17 | 61.22203 | -4.41998 | 33329 ft | 509 kts | 119° |
| 2026-05-04 19:17 | 61.20576 | -4.35521 | 33544 ft | 508 kts | 118° |
| 2026-05-04 19:17 | 61.18962 | -4.29118 | 33833 ft | 506 kts | 120° |
| 2026-05-04 19:18 | 61.17339 | -4.22683 | 34091 ft | 505 kts | 120° |
| 2026-05-04 19:18 | 61.15715 | -4.16287 | 34345 ft | 504 kts | 120° |
| 2026-05-04 19:18 | 61.14090 | -4.09896 | 34598 ft | 502 kts | 120° |
| 2026-05-04 19:18 | 61.12470 | -4.03542 | 34888 ft | 500 kts | 120° |
| 2026-05-04 19:19 | 61.10850 | -3.97198 | 35153 ft | 499 kts | 120° |
| 2026-05-04 19:19 | 61.09237 | -3.90900 | 35359 ft | 498 kts | 120° |
| 2026-05-04 19:19 | 61.07640 | -3.84688 | 35494 ft | 497 kts | 120° |
| 2026-05-04 19:19 | 61.06013 | -3.78394 | 35710 ft | 497 kts | 120° |
| 2026-05-04 19:20 | 61.04405 | -3.72172 | 35869 ft | 496 kts | 120° |
| 2026-05-04 19:20 | 61.02778 | -3.65894 | 36109 ft | 496 kts | 120° |
| 2026-05-04 19:20 | 61.01162 | -3.59681 | 36255 ft | 496 kts | 120° |
| 2026-05-04 19:20 | 60.99540 | -3.53450 | 36392 ft | 497 kts | 120° |
| 2026-05-04 19:21 | 60.97911 | -3.47226 | 36533 ft | 496 kts | 120° |
| 2026-05-04 19:21 | 60.96262 | -3.40945 | 36690 ft | 496 kts | 120° |
| 2026-05-04 19:21 | 60.94634 | -3.34749 | 36844 ft | 496 kts | 120° |